createdAt,value
2023-02-15T09:45:42.629Z,63511.69
2023-02-15T09:48:32.509Z,63511.69
2023-02-15T09:51:16.522Z,63511.69
2023-02-15T09:54:09.357Z,63511.69
2023-02-15T09:56:43.520Z,63511.69
2023-02-15T09:59:22.272Z,63511.69
2023-02-15T10:02:03.123Z,63511.69
2023-02-15T10:04:44.408Z,63511.69
2023-02-15T10:07:26.659Z,63511.69
2023-02-15T10:10:12.205Z,63511.69
2023-02-15T10:12:55.877Z,63511.69
2023-02-15T10:15:40.638Z,63511.69
2023-02-15T10:18:26.964Z,63511.69
2023-02-15T10:21:04.003Z,63511.69
2023-02-15T10:23:52.116Z,63511.69
2023-02-15T10:26:23.941Z,63511.69
2023-02-15T10:28:56.021Z,63511.69
2023-02-15T10:31:31.164Z,63511.69
2023-02-15T10:34:18.287Z,63511.69
2023-02-15T10:37:05.700Z,63511.69
2023-02-15T10:39:45.413Z,63511.69
2023-02-15T10:42:27.135Z,63511.69
2023-02-15T10:45:10.587Z,63511.69
2023-02-15T10:47:53.484Z,63511.69
2023-02-15T10:50:43.550Z,63511.69
2023-02-15T10:53:24.503Z,63511.69
2023-02-15T10:56:00.238Z,63511.69
2023-02-15T10:58:42.316Z,63511.69
2023-02-15T11:01:22.400Z,63511.69
2023-02-15T11:04:18.113Z,101984.78
2023-02-15T11:06:54.265Z,101980.38
2023-02-15T11:09:26.865Z,101969.06
2023-02-15T11:12:01.526Z,101970.75
2023-02-15T11:14:40.995Z,101974.91
2023-02-15T11:17:15.968Z,101972.72
2023-02-15T11:19:55.424Z,63511.69
2023-02-15T11:22:28.353Z,63511.69
2023-02-15T11:24:58.671Z,63511.69
2023-02-15T11:27:31.931Z,63511.69
2023-02-15T11:30:05.306Z,63511.69
2023-02-15T11:32:37.621Z,63511.69
2023-02-15T11:35:14.714Z,63511.69
2023-02-15T11:37:50.030Z,63511.69
2023-02-15T11:40:25.751Z,63511.69
2023-02-15T11:42:59.323Z,63511.69
2023-02-15T11:45:32.002Z,63511.69
2023-02-15T11:48:03.038Z,63511.69
2023-02-15T11:50:35.729Z,63511.69
2023-02-15T11:53:09.639Z,63511.69
2023-02-15T11:55:39.166Z,101932.16
2023-02-15T11:58:20.182Z,101925.44
2023-02-15T12:00:51.640Z,101931.09
2023-02-15T12:03:25.212Z,101923.84
2023-02-15T12:06:05.280Z,101925.31
2023-02-15T12:08:42.345Z,101927.69
2023-02-15T12:11:16.384Z,101923.22
2023-02-15T12:13:58.893Z,101921.72
2023-02-15T12:16:29.620Z,101921.59
2023-02-15T12:19:01.043Z,101919.75
2023-02-15T12:21:33.514Z,101918.94
2023-02-15T12:24:16.667Z,101925.53
2023-02-15T12:26:47.844Z,101929.66
2023-02-15T12:29:21.713Z,101938.81
2023-02-15T12:31:55.265Z,101935.38
2023-02-15T12:34:28.750Z,101937.16
2023-02-15T12:37:04.482Z,101932.97
2023-02-15T12:39:36.770Z,63511.69
2023-02-15T12:42:09.092Z,63511.69
2023-02-15T12:44:39.651Z,63511.69
2023-02-15T12:47:21.269Z,63511.69
2023-02-15T12:50:20.258Z,63511.69
2023-02-15T12:52:51.545Z,63511.69
2023-02-15T12:55:30.881Z,63511.69
2023-02-15T12:58:11.048Z,63511.69
2023-02-15T13:00:40.632Z,63511.69
2023-02-15T13:03:20.480Z,63511.69
2023-02-15T13:05:54.394Z,63511.69
2023-02-15T13:08:25.840Z,63511.69
2023-02-15T13:11:04.190Z,63511.69
2023-02-15T13:13:35.821Z,63511.69
2023-02-15T13:16:09.550Z,63511.69
2023-02-15T13:18:43.185Z,63511.69
2023-02-15T13:21:15.711Z,63511.69
2023-02-15T13:23:49.677Z,63511.69
2023-02-15T13:26:24.802Z,63511.69
2023-02-15T13:28:57.654Z,63511.69
2023-02-15T13:31:28.930Z,63511.69
2023-02-15T13:34:03.620Z,63511.69
2023-02-15T13:36:42.401Z,63511.69
2023-02-15T13:39:21.138Z,63511.69
2023-02-15T13:42:00.108Z,63511.69
2023-02-15T13:44:44.418Z,63511.69
2023-02-15T13:47:24.995Z,63511.69
2023-02-15T13:50:18.111Z,63511.69
2023-02-15T13:52:51.325Z,63511.69
2023-02-15T13:55:29.126Z,63511.69
2023-02-15T13:58:37.888Z,63511.69
2023-02-15T14:01:13.488Z,63511.69
2023-02-15T14:03:59.721Z,63511.69
2023-02-15T14:06:46.546Z,63511.69
2023-02-15T14:09:28.223Z,63511.69
2023-02-15T14:12:08.028Z,63511.69
2023-02-15T14:15:05.706Z,63511.69
2023-02-15T14:17:50.421Z,63511.69
2023-02-15T14:20:25.759Z,63511.69
2023-02-15T14:23:03.307Z,63511.69
2023-02-15T14:25:39.165Z,63511.69
2023-02-15T14:28:15.594Z,63511.69
2023-02-15T14:30:50.887Z,63511.69
2023-02-15T14:33:35.873Z,63511.69
2023-02-15T14:36:08.006Z,63511.69
2023-02-15T14:38:48.811Z,63511.69
2023-02-15T14:41:22.438Z,63511.69
2023-02-15T14:43:58.185Z,63511.69
2023-02-15T14:46:35.718Z,63511.69
2023-02-15T14:49:13.114Z,63511.69
2023-02-15T14:52:00.359Z,63511.69
2023-02-15T14:54:58.724Z,63511.69
2023-02-15T14:57:37.460Z,63511.69
2023-02-15T15:00:37.701Z,63511.69
2023-02-15T15:03:15.206Z,63511.69
2023-02-15T15:05:53.695Z,63511.69
2023-02-15T15:08:32.615Z,63511.69
2023-02-15T15:11:43.829Z,63511.69
2023-02-15T15:14:35.171Z,63511.69
2023-02-15T15:17:08.706Z,63511.69
2023-02-15T15:20:19.292Z,63511.69
2023-02-15T15:22:49.929Z,63511.69
2023-02-15T15:25:47.347Z,63511.69
2023-02-15T15:28:53.200Z,63511.69
2023-02-15T15:31:27.200Z,63511.69
2023-02-15T15:34:26.727Z,63511.69
2023-02-15T15:37:29.446Z,63511.69
2023-02-15T15:40:44.368Z,63511.69
2023-02-15T15:43:38.804Z,63511.69
2023-02-15T15:46:25.339Z,63511.69
2023-02-15T15:48:56.110Z,63511.69
2023-02-15T15:51:34.225Z,63511.69
2023-02-15T15:54:07.614Z,63511.69
2023-02-15T15:56:39.604Z,63511.69
2023-02-15T15:59:16.326Z,63511.69
2023-02-15T16:01:47.402Z,63511.69
2023-02-15T16:04:25.547Z,63511.69
2023-02-15T16:06:55.400Z,63511.69
2023-02-15T16:09:29.235Z,101761.63
2023-02-15T16:12:03.046Z,101764.03
2023-02-15T16:14:35.368Z,101757.75
2023-02-15T16:17:07.543Z,101761.16
2023-02-15T16:19:41.384Z,101766.81
2023-02-15T16:22:16.217Z,101763.38
2023-02-15T16:25:11.916Z,101758.81
2023-02-15T16:27:43.010Z,101756.94
2023-02-15T16:30:31.877Z,101760.31
2023-02-15T16:33:09.099Z,101756.00
2023-02-15T16:35:40.089Z,101757.41
2023-02-15T16:38:13.431Z,101756.81
2023-02-15T16:40:53.633Z,101763.25
2023-02-15T16:43:30.982Z,101761.00
2023-02-15T16:46:07.980Z,101767.34
2023-02-15T16:48:42.891Z,101767.44
2023-02-15T16:51:13.023Z,101759.06
2023-02-15T16:53:42.437Z,101766.09
2023-02-15T16:56:14.554Z,101758.19
2023-02-15T16:58:46.654Z,101750.91
2023-02-15T17:01:18.813Z,101754.94
2023-02-15T17:03:52.540Z,101753.59
2023-02-15T17:06:26.704Z,101752.47
2023-02-15T17:09:06.151Z,101758.22
2023-02-15T17:11:43.686Z,101764.38
2023-02-15T17:14:22.556Z,101761.00
2023-02-15T17:16:54.240Z,101754.44
2023-02-15T17:19:27.489Z,101749.72
2023-02-15T17:21:59.777Z,101754.84
2023-02-15T17:24:38.564Z,101748.97
2023-02-15T17:27:18.123Z,101758.75
2023-02-15T17:29:52.750Z,101760.72
2023-02-15T17:32:25.017Z,101764.38
2023-02-15T17:35:04.527Z,101758.16
2023-02-15T17:37:45.316Z,101756.53
2023-02-15T17:40:22.845Z,101755.84
2023-02-15T17:42:55.358Z,101754.38
2023-02-15T17:45:26.089Z,101756.81
2023-02-15T17:47:58.304Z,101746.53
2023-02-15T17:50:30.006Z,101748.50
2023-02-15T17:53:01.467Z,101742.53
2023-02-15T17:55:43.642Z,101747.78
2023-02-15T17:58:19.478Z,101744.25
2023-02-15T18:01:05.032Z,101741.66
2023-02-15T18:03:55.679Z,101750.50
2023-02-15T18:06:37.637Z,101758.28
2023-02-15T18:09:19.730Z,101749.06
2023-02-15T18:11:50.711Z,101750.28
2023-02-15T18:14:22.691Z,101748.31
2023-02-15T18:16:52.250Z,101744.94
2023-02-15T18:19:24.877Z,101737.38
2023-02-15T18:21:57.675Z,101744.84
2023-02-15T18:24:27.520Z,101737.91
2023-02-15T18:26:57.710Z,101733.03
2023-02-15T18:29:29.661Z,101740.59
2023-02-15T18:31:59.829Z,101739.28
2023-02-15T18:34:32.353Z,101734.72
2023-02-15T18:37:06.343Z,101730.38
2023-02-15T18:39:40.677Z,101730.72
2023-02-15T18:42:21.755Z,101721.75
2023-02-15T18:44:57.849Z,101719.69
2023-02-15T18:47:27.890Z,101729.19
2023-02-15T18:49:57.359Z,101728.97
2023-02-15T18:52:33.470Z,101730.22
2023-02-15T18:55:07.982Z,101732.16
2023-02-15T18:57:38.305Z,101729.47
2023-02-15T19:00:17.015Z,101728.50
2023-02-15T19:02:46.546Z,101717.16
2023-02-15T19:05:18.099Z,101726.31
2023-02-15T19:07:48.642Z,101718.88
2023-02-15T19:10:23.596Z,101712.19
2023-02-15T19:12:53.466Z,101708.00
2023-02-15T19:15:30.243Z,101695.00
2023-02-15T19:17:59.744Z,101692.31
2023-02-15T19:20:39.482Z,101701.13
2023-02-15T19:23:10.803Z,101688.56
2023-02-15T19:25:42.199Z,101693.94
2023-02-15T19:28:18.838Z,101698.19
2023-02-15T19:30:51.306Z,101699.88
2023-02-15T19:33:23.904Z,101697.56
2023-02-15T19:35:57.750Z,101693.44
2023-02-15T19:38:32.099Z,101691.97
2023-02-15T19:41:05.891Z,101687.97
2023-02-15T19:43:36.619Z,101689.63
2023-02-15T19:46:08.625Z,101682.09
2023-02-15T19:48:38.567Z,101685.16
2023-02-15T19:51:12.077Z,101679.91
2023-02-15T19:53:41.825Z,101686.53
2023-02-15T19:56:14.107Z,101691.13
2023-02-15T19:58:43.604Z,101685.66
2023-02-15T20:01:15.627Z,101693.06
2023-02-15T20:03:45.061Z,101690.38
2023-02-15T20:06:17.485Z,101681.88
2023-02-15T20:08:48.178Z,101681.75
2023-02-15T20:11:17.511Z,101689.91
2023-02-15T20:13:46.922Z,101683.72
2023-02-15T20:16:18.946Z,101684.06
2023-02-15T20:18:48.512Z,101680.56
2023-02-15T20:21:19.093Z,101680.16
2023-02-15T20:23:48.765Z,101673.03
2023-02-15T20:26:21.171Z,101679.34
2023-02-15T20:28:51.070Z,101680.31
2023-02-15T20:31:23.250Z,101682.88
2023-02-15T20:33:52.797Z,101675.94
2023-02-15T20:36:24.759Z,101671.56
2023-02-15T20:38:56.253Z,101678.63
2023-02-15T20:41:47.745Z,101691.78
2023-02-15T20:44:20.986Z,101686.28
2023-02-15T20:46:54.644Z,101689.44
2023-02-15T20:49:24.809Z,101684.72
2023-02-15T20:51:55.344Z,101697.88
2023-02-15T20:54:26.689Z,101690.78
2023-02-15T20:56:57.277Z,101688.38
2023-02-15T20:59:30.564Z,101685.06
2023-02-15T21:02:05.705Z,101691.28
2023-02-15T21:04:36.420Z,101694.22
2023-02-15T21:07:06.202Z,101687.91
2023-02-15T21:09:35.562Z,101693.50
2023-02-15T21:12:05.824Z,101694.47
2023-02-15T21:14:35.362Z,101695.81
2023-02-15T21:17:07.569Z,101693.97
2023-02-15T21:19:39.691Z,101695.41
2023-02-15T21:22:13.409Z,101704.56
2023-02-15T21:24:50.458Z,101695.41
2023-02-15T21:27:20.261Z,101691.78
2023-02-15T21:29:49.774Z,101689.09
2023-02-15T21:32:21.924Z,101707.59
2023-02-15T21:34:51.403Z,101693.84
2023-02-15T21:37:34.312Z,101695.78
2023-02-15T21:40:06.969Z,101696.66
2023-02-15T21:42:48.858Z,101691.06
2023-02-15T21:45:31.671Z,101690.19
2023-02-15T21:48:05.156Z,101702.25
2023-02-15T21:50:47.461Z,101708.19
2023-02-15T21:53:23.517Z,101695.56
2023-02-15T21:55:54.007Z,101702.50
2023-02-15T21:58:26.189Z,101698.72
2023-02-15T22:00:57.694Z,101703.69
2023-02-15T22:03:33.970Z,101710.06
2023-02-15T22:06:04.011Z,101710.16
2023-02-15T22:08:33.644Z,101707.09
2023-02-15T22:11:03.799Z,101716.97
2023-02-15T22:13:35.966Z,101713.31
2023-02-15T22:16:06.060Z,101706.63
2023-02-15T22:18:38.164Z,101704.66
2023-02-15T22:21:07.853Z,101709.06
2023-02-15T22:23:37.663Z,101704.66
2023-02-15T22:26:09.116Z,101702.25
2023-02-15T22:28:41.781Z,101690.19
2023-02-15T22:31:15.490Z,101705.66
2023-02-15T22:33:49.743Z,101699.06
2023-02-15T22:36:25.696Z,101702.00
2023-02-15T22:38:55.892Z,101706.72
2023-02-15T22:41:26.901Z,101710.16
2023-02-15T22:43:56.496Z,101715.38
2023-02-15T22:46:27.736Z,101710.75
2023-02-15T22:48:59.734Z,101707.31
2023-02-15T22:51:29.156Z,101697.59
2023-02-15T22:53:58.585Z,101702.84
2023-02-15T22:56:32.775Z,101694.31
2023-02-15T22:59:04.617Z,101696.13
2023-02-15T23:01:36.161Z,101695.66
2023-02-15T23:04:08.516Z,101694.41
2023-02-15T23:06:37.959Z,101696.38
2023-02-15T23:09:07.688Z,101695.41
2023-02-15T23:11:37.136Z,101695.13
2023-02-15T23:14:06.645Z,101691.00
2023-02-15T23:16:37.362Z,101692.44
2023-02-15T23:19:13.065Z,101685.91
2023-02-15T23:21:42.426Z,101685.66
2023-02-15T23:24:20.130Z,101688.44
2023-02-15T23:26:50.967Z,101682.13
2023-02-15T23:29:22.823Z,101689.41
2023-02-15T23:31:54.503Z,101680.41
2023-02-15T23:34:29.783Z,101683.94
2023-02-15T23:36:59.540Z,101689.28
2023-02-15T23:39:43.442Z,101677.94
2023-02-15T23:42:15.859Z,101683.00
2023-02-15T23:44:46.429Z,101691.50
2023-02-15T23:47:43.230Z,101680.94
2023-02-15T23:50:24.896Z,101684.81
2023-02-15T23:52:55.833Z,101688.66
2023-02-15T23:55:31.080Z,101684.19
2023-02-15T23:58:00.469Z,101678.19
